sensor_id;sensor_type;location;lat;lon;timestamp;temperature;humidity
19174;DHT22;9719;49.322;8.536;2024-03-29T00:03:18;7.90;99.90
19174;DHT22;9719;49.322;8.536;2024-03-29T00:08:20;8.00;99.90
19174;DHT22;9719;49.322;8.536;2024-03-29T00:13:21;8.10;99.90
19174;DHT22;9719;49.322;8.536;2024-03-29T00:18:22;8.10;99.90
19174;DHT22;9719;49.322;8.536;2024-03-29T00:23:24;8.20;99.90
19174;DHT22;9719;49.322;8.536;2024-03-29T00:28:25;8.20;99.90
19174;DHT22;9719;49.322;8.536;2024-03-29T00:33:26;8.20;99.90
19174;DHT22;9719;49.322;8.536;2024-03-29T00:38:28;8.20;99.90
19174;DHT22;9719;49.322;8.536;2024-03-29T00:43:28;8.10;99.90
19174;DHT22;9719;49.322;8.536;2024-03-29T00:48:29;8.20;99.90
19174;DHT22;9719;49.322;8.536;2024-03-29T00:53:31;8.30;99.90
19174;DHT22;9719;49.322;8.536;2024-03-29T00:58:32;8.40;99.90
19174;DHT22;9719;49.322;8.536;2024-03-29T01:03:33;8.30;99.90
19174;DHT22;9719;49.322;8.536;2024-03-29T01:08:35;8.40;99.90
19174;DHT22;9719;49.322;8.536;2024-03-29T01:13:36;8.30;99.90
19174;DHT22;9719;49.322;8.536;2024-03-29T01:18:37;8.40;99.90
19174;DHT22;9719;49.322;8.536;2024-03-29T01:23:39;8.50;99.90
19174;DHT22;9719;49.322;8.536;2024-03-29T01:28:39;8.50;99.90
19174;DHT22;9719;49.322;8.536;2024-03-29T01:33:40;8.50;99.90
19174;DHT22;9719;49.322;8.536;2024-03-29T01:38:42;8.50;99.90
19174;DHT22;9719;49.322;8.536;2024-03-29T01:43:43;8.60;99.90
19174;DHT22;9719;49.322;8.536;2024-03-29T01:48:45;8.50;99.90
19174;DHT22;9719;49.322;8.536;2024-03-29T01:53:50;8.70;99.90
19174;DHT22;9719;49.322;8.536;2024-03-29T01:58:55;8.70;99.90
19174;DHT22;9719;49.322;8.536;2024-03-29T02:03:57;8.80;99.90
19174;DHT22;9719;49.322;8.536;2024-03-29T02:09:00;8.80;99.90
19174;DHT22;9719;49.322;8.536;2024-03-29T02:14:04;8.80;99.90
19174;DHT22;9719;49.322;8.536;2024-03-29T02:19:07;8.90;99.90
19174;DHT22;9719;49.322;8.536;2024-03-29T02:24:12;9.00;99.90
19174;DHT22;9719;49.322;8.536;2024-03-29T02:29:17;9.00;99.90
19174;DHT22;9719;49.322;8.536;2024-03-29T02:34:19;9.10;99.90
19174;DHT22;9719;49.322;8.536;2024-03-29T02:39:22;9.30;99.90
19174;DHT22;9719;49.322;8.536;2024-03-29T02:44:24;9.30;99.90
19174;DHT22;9719;49.322;8.536;2024-03-29T02:49:25;9.40;99.90
19174;DHT22;9719;49.322;8.536;2024-03-29T02:54:28;9.40;99.90
19174;DHT22;9719;49.322;8.536;2024-03-29T02:59:30;9.40;99.90
19174;DHT22;9719;49.322;8.536;2024-03-29T03:04:32;9.60;99.90
19174;DHT22;9719;49.322;8.536;2024-03-29T03:09:37;9.60;99.90
19174;DHT22;9719;49.322;8.536;2024-03-29T03:14:56;9.60;99.90
19174;DHT22;9719;49.322;8.536;2024-03-29T03:19:59;9.60;99.90
19174;DHT22;9719;49.322;8.536;2024-03-29T03:25:02;9.80;99.90
19174;DHT22;9719;49.322;8.536;2024-03-29T03:30:05;9.90;99.90
19174;DHT22;9719;49.322;8.536;2024-03-29T03:35:08;10.10;99.90
19174;DHT22;9719;49.322;8.536;2024-03-29T03:40:11;10.00;99.90
19174;DHT22;9719;49.322;8.536;2024-03-29T03:45:13;10.00;99.90
19174;DHT22;9719;49.322;8.536;2024-03-29T03:50:15;9.80;99.90
19174;DHT22;9719;49.322;8.536;2024-03-29T03:55:18;9.70;99.90
19174;DHT22;9719;49.322;8.536;2024-03-29T04:00:20;9.60;99.90
19174;DHT22;9719;49.322;8.536;2024-03-29T04:05:22;9.30;99.90
19174;DHT22;9719;49.322;8.536;2024-03-29T04:10:26;9.20;99.90
19174;DHT22;9719;49.322;8.536;2024-03-29T04:15:28;9.20;99.90
19174;DHT22;9719;49.322;8.536;2024-03-29T04:20:29;9.50;99.90
19174;DHT22;9719;49.322;8.536;2024-03-29T04:25:32;9.40;99.90
19174;DHT22;9719;49.322;8.536;2024-03-29T04:30:34;9.40;99.90
19174;DHT22;9719;49.322;8.536;2024-03-29T04:35:36;9.30;99.90
19174;DHT22;9719;49.322;8.536;2024-03-29T04:40:39;9.30;99.90
19174;DHT22;9719;49.322;8.536;2024-03-29T04:45:40;9.30;99.90
19174;DHT22;9719;49.322;8.536;2024-03-29T04:50:42;9.30;99.90
19174;DHT22;9719;49.322;8.536;2024-03-29T04:55:45;9.50;99.90
19174;DHT22;9719;49.322;8.536;2024-03-29T05:00:48;9.40;99.90
19174;DHT22;9719;49.322;8.536;2024-03-29T05:05:51;9.40;99.90
19174;DHT22;9719;49.322;8.536;2024-03-29T05:10:54;9.50;99.90
19174;DHT22;9719;49.322;8.536;2024-03-29T05:15:55;9.60;99.90
19174;DHT22;9719;49.322;8.536;2024-03-29T05:20:57;9.70;99.90
19174;DHT22;9719;49.322;8.536;2024-03-29T05:26:00;9.70;99.90
19174;DHT22;9719;49.322;8.536;2024-03-29T05:31:11;9.80;99.90
19174;DHT22;9719;49.322;8.536;2024-03-29T05:36:14;9.90;99.90
19174;DHT22;9719;49.322;8.536;2024-03-29T05:41:17;9.90;99.90
19174;DHT22;9719;49.322;8.536;2024-03-29T05:46:18;10.00;99.90
19174;DHT22;9719;49.322;8.536;2024-03-29T05:51:20;10.10;99.90
19174;DHT22;9719;49.322;8.536;2024-03-29T05:56:23;10.00;99.90
19174;DHT22;9719;49.322;8.536;2024-03-29T06:01:25;10.10;99.90
19174;DHT22;9719;49.322;8.536;2024-03-29T06:06:26;10.10;99.90
19174;DHT22;9719;49.322;8.536;2024-03-29T06:11:29;10.00;99.90
19174;DHT22;9719;49.322;8.536;2024-03-29T06:16:31;10.00;99.90
19174;DHT22;9719;49.322;8.536;2024-03-29T06:21:50;10.10;99.90
19174;DHT22;9719;49.322;8.536;2024-03-29T06:26:53;9.90;99.90
19174;DHT22;9719;49.322;8.536;2024-03-29T06:31:55;10.10;99.90
19174;DHT22;9719;49.322;8.536;2024-03-29T06:36:57;10.20;99.90
19174;DHT22;9719;49.322;8.536;2024-03-29T06:42:00;10.40;99.90
19174;DHT22;9719;49.322;8.536;2024-03-29T06:47:02;10.60;99.90
19174;DHT22;9719;49.322;8.536;2024-03-29T06:52:04;10.50;99.90
19174;DHT22;9719;49.322;8.536;2024-03-29T06:57:07;10.70;99.90
19174;DHT22;9719;49.322;8.536;2024-03-29T07:02:10;10.70;99.90
19174;DHT22;9719;49.322;8.536;2024-03-29T07:07:12;10.70;99.90
19174;DHT22;9719;49.322;8.536;2024-03-29T07:12:15;10.90;99.90
19174;DHT22;9719;49.322;8.536;2024-03-29T07:17:17;11.20;99.90
19174;DHT22;9719;49.322;8.536;2024-03-29T07:22:18;11.30;99.90
19174;DHT22;9719;49.322;8.536;2024-03-29T07:27:21;11.20;99.90
19174;DHT22;9719;49.322;8.536;2024-03-29T07:32:23;11.20;99.90
19174;DHT22;9719;49.322;8.536;2024-03-29T07:37:25;11.10;99.90
19174;DHT22;9719;49.322;8.536;2024-03-29T07:42:28;11.10;99.90
19174;DHT22;9719;49.322;8.536;2024-03-29T07:47:30;10.90;99.90
19174;DHT22;9719;49.322;8.536;2024-03-29T07:52:31;10.90;99.90
19174;DHT22;9719;49.322;8.536;2024-03-29T07:57:34;10.80;99.90
19174;DHT22;9719;49.322;8.536;2024-03-29T08:02:36;10.60;99.90
19174;DHT22;9719;49.322;8.536;2024-03-29T08:07:38;10.50;99.90
19174;DHT22;9719;49.322;8.536;2024-03-29T08:12:42;10.50;99.90
19174;DHT22;9719;49.322;8.536;2024-03-29T08:17:43;10.40;99.90
19174;DHT22;9719;49.322;8.536;2024-03-29T08:22:45;10.30;99.90
19174;DHT22;9719;49.322;8.536;2024-03-29T08:27:48;10.20;99.90
19174;DHT22;9719;49.322;8.536;2024-03-29T08:32:50;9.90;99.90
19174;DHT22;9719;49.322;8.536;2024-03-29T08:37:53;9.70;99.90
19174;DHT22;9719;49.322;8.536;2024-03-29T08:42:56;9.70;99.90
19174;DHT22;9719;49.322;8.536;2024-03-29T08:47:57;9.60;99.90
19174;DHT22;9719;49.322;8.536;2024-03-29T08:52:59;9.50;99.90
19174;DHT22;9719;49.322;8.536;2024-03-29T08:58:02;9.40;99.90
19174;DHT22;9719;49.322;8.536;2024-03-29T09:03:04;9.40;99.90
19174;DHT22;9719;49.322;8.536;2024-03-29T09:08:06;9.40;99.90
19174;DHT22;9719;49.322;8.536;2024-03-29T09:13:09;9.40;99.90
19174;DHT22;9719;49.322;8.536;2024-03-29T09:18:11;9.70;99.90
19174;DHT22;9719;49.322;8.536;2024-03-29T09:23:19;9.80;99.90
19174;DHT22;9719;49.322;8.536;2024-03-29T09:28:25;10.10;99.90
19174;DHT22;9719;49.322;8.536;2024-03-29T09:33:27;10.40;99.90
19174;DHT22;9719;49.322;8.536;2024-03-29T09:38:28;10.30;99.90
19174;DHT22;9719;49.322;8.536;2024-03-29T09:43:32;10.30;99.90
19174;DHT22;9719;49.322;8.536;2024-03-29T09:48:34;10.40;99.90
19174;DHT22;9719;49.322;8.536;2024-03-29T09:53:37;11.20;99.90
19174;DHT22;9719;49.322;8.536;2024-03-29T09:58:40;11.60;99.90
19174;DHT22;9719;49.322;8.536;2024-03-29T10:03:45;11.80;99.90
19174;DHT22;9719;49.322;8.536;2024-03-29T10:08:49;12.10;99.90
19174;DHT22;9719;49.322;8.536;2024-03-29T10:13:56;12.90;99.90
19174;DHT22;9719;49.322;8.536;2024-03-29T10:18:58;12.90;99.90
19174;DHT22;9719;49.322;8.536;2024-03-29T10:24:00;13.00;99.90
19174;DHT22;9719;49.322;8.536;2024-03-29T10:29:03;13.50;99.90
19174;DHT22;9719;49.322;8.536;2024-03-29T10:34:05;13.20;99.90
19174;DHT22;9719;49.322;8.536;2024-03-29T10:39:10;13.10;99.90
19174;DHT22;9719;49.322;8.536;2024-03-29T10:44:14;12.70;99.90
19174;DHT22;9719;49.322;8.536;2024-03-29T10:49:15;12.50;99.90
19174;DHT22;9719;49.322;8.536;2024-03-29T10:54:19;13.20;99.90
19174;DHT22;9719;49.322;8.536;2024-03-29T10:59:30;12.70;99.90
19174;DHT22;9719;49.322;8.536;2024-03-29T11:04:37;13.10;99.90
19174;DHT22;9719;49.322;8.536;2024-03-29T11:09:40;13.20;99.90
19174;DHT22;9719;49.322;8.536;2024-03-29T11:14:46;13.10;99.90
19174;DHT22;9719;49.322;8.536;2024-03-29T11:19:48;13.50;99.90
19174;DHT22;9719;49.322;8.536;2024-03-29T11:24:50;13.70;99.90
19174;DHT22;9719;49.322;8.536;2024-03-29T11:29:54;14.00;99.90
19174;DHT22;9719;49.322;8.536;2024-03-29T11:34:55;14.10;99.90
19174;DHT22;9719;49.322;8.536;2024-03-29T11:39:59;14.50;99.90
19174;DHT22;9719;49.322;8.536;2024-03-29T11:45:04;15.00;99.90
19174;DHT22;9719;49.322;8.536;2024-03-29T11:50:08;14.80;99.90
19174;DHT22;9719;49.322;8.536;2024-03-29T11:55:11;14.00;99.90
19174;DHT22;9719;49.322;8.536;2024-03-29T12:00:15;13.70;99.90
19174;DHT22;9719;49.322;8.536;2024-03-29T12:05:16;13.40;99.90
19174;DHT22;9719;49.322;8.536;2024-03-29T12:10:18;13.20;99.90
19174;DHT22;9719;49.322;8.536;2024-03-29T12:15:23;13.20;99.90
19174;DHT22;9719;49.322;8.536;2024-03-29T12:20:25;13.10;99.90
19174;DHT22;9719;49.322;8.536;2024-03-29T12:25:27;13.00;99.90
19174;DHT22;9719;49.322;8.536;2024-03-29T12:30:30;12.90;99.90
19174;DHT22;9719;49.322;8.536;2024-03-29T12:35:32;13.00;99.90
19174;DHT22;9719;49.322;8.536;2024-03-29T12:40:34;12.80;99.90
19174;DHT22;9719;49.322;8.536;2024-03-29T12:45:40;12.60;99.90
19174;DHT22;9719;49.322;8.536;2024-03-29T12:50:43;12.60;99.90
19174;DHT22;9719;49.322;8.536;2024-03-29T12:55:46;12.70;99.90
19174;DHT22;9719;49.322;8.536;2024-03-29T13:00:50;12.50;99.90
19174;DHT22;9719;49.322;8.536;2024-03-29T13:05:51;12.40;99.90
19174;DHT22;9719;49.322;8.536;2024-03-29T13:10:53;12.30;99.90
19174;DHT22;9719;49.322;8.536;2024-03-29T13:15:57;12.10;99.90
19174;DHT22;9719;49.322;8.536;2024-03-29T13:20:58;11.90;99.90
19174;DHT22;9719;49.322;8.536;2024-03-29T13:26:03;11.90;99.90
19174;DHT22;9719;49.322;8.536;2024-03-29T13:31:06;11.80;99.90
19174;DHT22;9719;49.322;8.536;2024-03-29T13:36:08;11.80;99.90
19174;DHT22;9719;49.322;8.536;2024-03-29T13:41:10;11.60;99.90
19174;DHT22;9719;49.322;8.536;2024-03-29T13:46:15;11.60;99.90
19174;DHT22;9719;49.322;8.536;2024-03-29T13:51:16;11.40;99.90
19174;DHT22;9719;49.322;8.536;2024-03-29T13:56:18;11.30;99.90
19174;DHT22;9719;49.322;8.536;2024-03-29T14:01:21;11.50;99.90
19174;DHT22;9719;49.322;8.536;2024-03-29T14:06:23;11.70;99.90
19174;DHT22;9719;49.322;8.536;2024-03-29T14:11:24;11.90;99.90
19174;DHT22;9719;49.322;8.536;2024-03-29T14:16:27;12.20;99.90
19174;DHT22;9719;49.322;8.536;2024-03-29T14:21:29;12.40;99.90
19174;DHT22;9719;49.322;8.536;2024-03-29T14:26:30;12.90;99.90
19174;DHT22;9719;49.322;8.536;2024-03-29T14:31:34;13.50;99.90
19174;DHT22;9719;49.322;8.536;2024-03-29T14:36:36;13.30;99.90
19174;DHT22;9719;49.322;8.536;2024-03-29T14:41:38;12.90;99.90
19174;DHT22;9719;49.322;8.536;2024-03-29T14:46:41;12.80;99.90
19174;DHT22;9719;49.322;8.536;2024-03-29T14:51:43;12.90;99.90
19174;DHT22;9719;49.322;8.536;2024-03-29T14:56:45;13.00;99.90
19174;DHT22;9719;49.322;8.536;2024-03-29T15:01:49;12.90;99.90
19174;DHT22;9719;49.322;8.536;2024-03-29T15:06:51;13.00;99.90
19174;DHT22;9719;49.322;8.536;2024-03-29T15:11:52;13.50;99.90
19174;DHT22;9719;49.322;8.536;2024-03-29T15:16:55;13.40;99.90
19174;DHT22;9719;49.322;8.536;2024-03-29T15:21:57;13.30;99.90
19174;DHT22;9719;49.322;8.536;2024-03-29T15:26:58;13.50;99.90
19174;DHT22;9719;49.322;8.536;2024-03-29T15:32:01;13.50;99.90
19174;DHT22;9719;49.322;8.536;2024-03-29T15:37:03;13.60;99.90
19174;DHT22;9719;49.322;8.536;2024-03-29T15:42:05;13.70;99.90
19174;DHT22;9719;49.322;8.536;2024-03-29T15:47:11;13.70;99.90
19174;DHT22;9719;49.322;8.536;2024-03-29T15:52:13;13.70;99.90
19174;DHT22;9719;49.322;8.536;2024-03-29T15:57:15;13.70;99.90
19174;DHT22;9719;49.322;8.536;2024-03-29T16:02:18;13.90;99.90
19174;DHT22;9719;49.322;8.536;2024-03-29T16:07:19;13.90;99.90
19174;DHT22;9719;49.322;8.536;2024-03-29T16:12:21;13.90;99.90
19174;DHT22;9719;49.322;8.536;2024-03-29T16:17:24;13.90;99.90
19174;DHT22;9719;49.322;8.536;2024-03-29T16:22:26;13.50;99.90
19174;DHT22;9719;49.322;8.536;2024-03-29T16:27:27;13.50;99.90
19174;DHT22;9719;49.322;8.536;2024-03-29T16:32:30;13.60;99.90
19174;DHT22;9719;49.322;8.536;2024-03-29T16:37:35;13.60;99.90
19174;DHT22;9719;49.322;8.536;2024-03-29T16:42:37;13.50;99.90
19174;DHT22;9719;49.322;8.536;2024-03-29T16:47:40;13.40;99.90
19174;DHT22;9719;49.322;8.536;2024-03-29T16:52:42;13.50;99.90
19174;DHT22;9719;49.322;8.536;2024-03-29T16:57:44;13.40;99.90
19174;DHT22;9719;49.322;8.536;2024-03-29T17:02:47;13.20;99.90
